East Lyme, Connecticut
Current Conditions -  °F | °C
As of 4:56 PM on Thursday 18 Dec 2014 (Local Time) from KGON Reporting Station
Few Clouds Few Clouds  
Wind Chill: 30°   Ceiling: Unl
Heat Index: 38°   Visibility: 10mi
Dew Point: 27°   Wind: 12mph
Humidity: 65%   Direction: 300°WNW
Pressure: 29.88"   Gusts: NA
Location:  41.37°N, 72.22°W
Report Text: KGON 182156Z 30010KT 10SM FEW035 03/M03 A2988 RMK AO2 SLP119 T00331028
Loading
Personal Weather Stations






























Interactive Weather Map New forecast layout! Learn more

10-Day Weather Forecast

Advertisements
Track Severe Weather on mobile